Main page
METAR-TAF:

METAR-TAF

Airports :

Çiğli Air Base

Izmir, Turkey

latitude: 38-30N, longitude: 027-01E, elevation: 5 m

Current weather observation

The report was made 2 hours and 18 minutes ago, at 01:30 UTC
Wind 6 kt from the West/Northwest
Temperature 16°C
Humidity 82%
Pressure 1017 hPa
Visibility 10 km or more
Few clouds at a height of 4000 ft

METAR: LTBL 260130Z 29006KT 9999 FEW040 16/13 Q1017 RESHRA NOSIG RMK RWY17 30007KT

Time: 06:48 (03:48 UTC)

Forecast

The report was made 2 hours and 8 minutes ago, at 01:40 UTC
Forecast valid from 26 at 03 UTC to 26 at 12 UTC
Wind 2 kt from variable directions
Visibility 10 km or more
Few clouds at a height of 4000 ft
Scattered clouds at a height of 10000 ft
Temporary
from 26 at 03 UTC to 26 at 05 UTC
light rain showers
Becoming
from 26 at 10 UTC to 26 at 12 UTC
Wind 12 kt from the North/Northwest

TAF: LTBL 260140Z 2603/2612 VRB02KT 9999 FEW040 SCT100 TEMPO 2603/2605 -SHRA BECMG 2610/2612 33012KT

Weather observations and forecasts of more than 4000 airports (METAR and TAF reports).

The available stations are represented by yellow and red dots on the map.

Hover mouse over dot to see the name of the station.

Then click to see weather observations and forecasts.

To change the map : click on the green buttons with a black cross to zoom in, on the green button with a dash to zoom out, or on the green arrows for adjacent maps.


METAR-TAF: